createdAt,value
2023-01-02T00:01:32.147Z,100513.94
2023-01-02T00:04:22.192Z,100502.38
2023-01-02T00:07:12.069Z,100504.03
2023-01-02T00:10:00.793Z,100502.81
2023-01-02T00:12:49.479Z,100495.16
2023-01-02T00:15:38.166Z,100489.63
2023-01-02T00:18:26.801Z,100495.81
2023-01-02T00:21:17.092Z,100491.88
2023-01-02T00:24:06.287Z,100495.78
2023-01-02T00:26:54.956Z,100499.72
2023-01-02T00:29:43.609Z,100497.44
2023-01-02T00:32:32.189Z,100485.06
2023-01-02T00:35:20.765Z,100483.38
2023-01-02T00:38:10.789Z,100483.19
2023-01-02T00:40:59.334Z,100467.59
2023-01-02T00:43:47.903Z,100466.09
2023-01-02T00:46:36.555Z,100457.03
2023-01-02T00:49:25.247Z,100459.31
2023-01-02T00:52:13.926Z,100455.41
2023-01-02T00:55:03.990Z,100448.59
2023-01-02T00:57:52.760Z,100450.47
2023-01-02T01:00:41.687Z,100461.16
2023-01-02T01:03:30.623Z,100459.09
2023-01-02T01:06:19.258Z,100462.81
2023-01-02T01:09:07.912Z,100458.50
2023-01-02T01:12:00.069Z,100452.09
2023-01-02T01:14:50.827Z,100443.84
2023-01-02T01:17:39.460Z,100454.56
2023-01-02T01:20:28.095Z,100445.91
2023-01-02T01:23:16.728Z,100440.97
2023-01-02T01:26:06.857Z,100446.31
2023-01-02T01:28:57.373Z,100444.88
2023-01-02T01:31:46.008Z,100438.31
2023-01-02T01:34:34.686Z,100435.63
2023-01-02T01:37:23.322Z,100427.00
2023-01-02T01:40:12.427Z,100437.69
2023-01-02T01:43:01.278Z,100446.75
2023-01-02T01:45:51.334Z,100439.31
2023-01-02T01:48:40.128Z,100453.50
2023-01-02T01:51:30.102Z,100455.78
2023-01-02T01:54:22.318Z,100443.84
2023-01-02T01:57:14.772Z,100448.56
2023-01-02T02:00:03.822Z,100443.41
2023-01-02T02:02:59.050Z,100450.81
2023-01-02T02:05:48.698Z,100446.75
2023-01-02T02:08:41.673Z,100436.66
2023-01-02T02:11:30.402Z,100429.44
2023-01-02T02:14:19.265Z,100423.72
2023-01-02T02:17:14.632Z,100410.53
2023-01-02T02:20:12.638Z,100413.41
2023-01-02T02:23:30.508Z,100419.16
2023-01-02T02:26:51.967Z,100420.81
2023-01-02T02:30:17.002Z,100414.66
2023-01-02T02:33:19.249Z,100407.44
2023-01-02T02:36:15.467Z,100411.75
2023-01-02T02:39:12.124Z,100417.94
2023-01-02T02:42:08.637Z,100413.41
2023-01-02T02:45:01.430Z,100413.41
2023-01-02T02:47:53.038Z,100413.81
2023-01-02T02:50:46.087Z,100403.13
2023-01-02T02:53:37.675Z,100409.50
2023-01-02T02:56:27.585Z,100395.28
2023-01-02T02:59:16.500Z,100395.94
2023-01-02T03:02:05.552Z,100392.41
2023-01-02T03:04:58.253Z,100395.72
2023-01-02T03:07:51.184Z,100400.44
2023-01-02T03:10:47.255Z,100394.47
2023-01-02T03:13:42.446Z,100388.31
2023-01-02T03:16:33.676Z,100394.91
2023-01-02T03:19:26.793Z,100398.59
2023-01-02T03:22:18.597Z,100394.47
2023-01-02T03:25:11.352Z,100388.28
2023-01-02T03:28:00.832Z,100383.38
2023-01-02T03:30:51.173Z,100384.19
2023-01-02T03:33:42.231Z,100382.56
2023-01-02T03:36:32.258Z,100364.47
2023-01-02T03:39:23.855Z,100366.09
2023-01-02T03:42:15.907Z,100356.63
2023-01-02T03:45:08.222Z,100357.47
2023-01-02T03:48:01.501Z,100363.63
2023-01-02T03:50:53.205Z,100349.66
2023-01-02T03:53:42.057Z,100346.78
2023-01-02T03:56:39.675Z,100339.38
2023-01-02T03:59:36.342Z,100344.72
2023-01-02T04:02:28.996Z,100339.38
2023-01-02T04:05:21.574Z,100343.06
2023-01-02T04:08:12.749Z,100340.41
2023-01-02T04:11:02.768Z,100343.06
2023-01-02T04:13:55.257Z,100340.41
2023-01-02T04:16:46.633Z,100336.47
2023-01-02T04:19:37.345Z,100336.88
2023-01-02T04:22:28.829Z,100337.72
2023-01-02T04:25:19.253Z,100349.63
2023-01-02T04:28:11.194Z,100338.94
2023-01-02T04:31:04.676Z,100348.00
2023-01-02T04:33:57.760Z,100337.50
2023-01-02T04:36:46.500Z,100337.50
2023-01-02T04:39:39.615Z,100333.59
2023-01-02T04:42:28.315Z,100342.66
2023-01-02T04:45:17.053Z,100345.72
2023-01-02T04:48:06.276Z,100346.34
2023-01-02T04:50:57.124Z,100343.25
2023-01-02T04:53:45.742Z,100346.53
2023-01-02T04:56:34.316Z,100355.41
2023-01-02T04:59:22.919Z,100357.47
2023-01-02T05:02:11.640Z,100366.09
2023-01-02T05:05:00.326Z,100366.88
2023-01-02T05:07:50.362Z,100359.47
2023-01-02T05:10:39.361Z,100357.47
2023-01-02T05:13:27.962Z,100362.16
2023-01-02T05:16:16.673Z,100362.38
2023-01-02T05:19:05.310Z,100368.16
2023-01-02T05:22:11.887Z,100372.66
2023-01-02T05:25:01.885Z,100371.44
2023-01-02T05:27:54.197Z,100371.03
2023-01-02T05:30:42.738Z,100369.78
2023-01-02T05:33:31.362Z,100362.81
2023-01-02T05:36:20.081Z,100368.16
2023-01-02T05:39:09.406Z,100367.72
2023-01-02T05:41:59.377Z,100367.72
2023-01-02T05:44:47.922Z,100367.72
2023-01-02T05:47:36.538Z,100366.47
2023-01-02T05:50:25.097Z,100363.41
2023-01-02T05:53:13.707Z,100361.13
2023-01-02T05:56:06.461Z,100367.72
2023-01-02T05:58:56.503Z,100358.22
2023-01-02T06:01:45.173Z,100362.72
2023-01-02T06:04:33.805Z,100359.91
2023-01-02T06:07:22.403Z,100372.59
2023-01-02T06:10:11.284Z,100372.59
2023-01-02T06:12:59.892Z,100375.94
2023-01-02T06:15:49.833Z,100389.66
2023-01-02T06:18:39.893Z,100379.19
2023-01-02T06:21:28.570Z,100391.97
2023-01-02T06:24:17.308Z,100388.28
2023-01-02T06:27:05.932Z,100388.72
2023-01-02T06:29:54.552Z,100384.19
2023-01-02T06:32:44.593Z,100390.78
2023-01-02T06:35:33.231Z,100393.03
2023-01-02T06:38:21.849Z,100389.53
2023-01-02T06:41:11.255Z,100393.25
2023-01-02T06:43:59.823Z,100393.66
2023-01-02T06:46:48.566Z,100391.19
2023-01-02T06:49:38.579Z,100382.56
2023-01-02T06:52:29.000Z,100382.13
2023-01-02T06:55:17.655Z,100380.50
2023-01-02T06:58:11.113Z,100382.13
2023-01-02T07:01:04.672Z,100391.19
2023-01-02T07:03:55.572Z,100389.13
2023-01-02T07:06:45.505Z,100398.78
2023-01-02T07:09:34.239Z,100402.09
2023-01-02T07:12:22.851Z,100399.00
2023-01-02T07:15:12.055Z,100406.41
2023-01-02T07:18:00.818Z,100404.75
2023-01-02T07:20:55.165Z,100414.22
2023-01-02T07:23:45.216Z,100436.03
2023-01-02T07:26:33.909Z,100428.19
2023-01-02T07:29:22.519Z,100426.56
2023-01-02T07:32:11.220Z,100427.34
2023-01-02T07:34:59.839Z,100443.47
2023-01-02T07:37:48.488Z,100445.09
2023-01-02T07:40:38.485Z,100442.19
2023-01-02T07:43:27.214Z,100451.06
2023-01-02T07:46:17.088Z,100457.44
2023-01-02T07:49:05.732Z,100456.59
2023-01-02T07:51:54.291Z,100458.25
2023-01-02T07:54:42.860Z,100452.50
2023-01-02T07:57:32.960Z,100449.63
2023-01-02T08:00:22.152Z,100455.44
2023-01-02T08:03:10.767Z,100461.63
2023-01-02T08:06:04.680Z,100465.72
2023-01-02T08:08:53.495Z,100474.41
2023-01-02T08:11:42.094Z,100465.72
2023-01-02T08:14:32.086Z,100472.72
2023-01-02T08:17:20.807Z,100469.06
2023-01-02T08:20:11.333Z,100467.38
2023-01-02T08:22:59.969Z,100476.44
2023-01-02T08:25:52.668Z,100476.03
2023-01-02T08:28:44.820Z,100485.09
2023-01-02T08:31:43.515Z,100479.94
2023-01-02T08:34:32.568Z,100479.75
2023-01-02T08:37:21.358Z,100477.47
2023-01-02T08:40:11.209Z,100487.97
2023-01-02T08:42:59.836Z,100484.06
2023-01-02T08:45:48.494Z,100490.84
2023-01-02T08:48:38.561Z,100489.19
2023-01-02T08:51:27.373Z,100490.84
2023-01-02T08:54:15.997Z,100491.69
2023-01-02T08:57:04.676Z,100490.38
2023-01-02T08:59:53.376Z,100485.63
2023-01-02T09:02:42.108Z,100489.16
2023-01-02T09:05:32.241Z,100487.50
2023-01-02T09:08:20.886Z,100491.22
2023-01-02T09:11:13.777Z,100493.69
2023-01-02T09:14:03.009Z,100494.69
2023-01-02T09:16:52.624Z,100496.56
2023-01-02T09:19:42.664Z,100502.94
2023-01-02T09:22:32.589Z,100482.56
2023-01-02T09:25:24.323Z,100480.25
2023-01-02T09:28:13.262Z,100482.13
2023-01-02T09:31:05.057Z,100491.78
2023-01-02T09:33:55.943Z,100498.72
2023-01-02T09:36:44.651Z,100504.25
2023-01-02T09:39:34.593Z,100510.81
2023-01-02T09:42:23.259Z,100501.34
2023-01-02T09:45:12.708Z,100502.50
2023-01-02T09:48:01.682Z,100512.34
2023-01-02T09:50:51.502Z,100506.34
2023-01-02T09:53:40.253Z,100504.41
2023-01-02T09:56:34.477Z,100499.66
2023-01-02T09:59:27.053Z,100499.84
2023-01-02T10:02:26.504Z,100504.56
2023-01-02T10:05:33.550Z,100496.75
2023-01-02T10:08:32.314Z,100482.41
2023-01-02T10:11:33.167Z,100492.47
2023-01-02T10:14:36.109Z,100482.63
2023-01-02T10:17:28.582Z,100483.47
2023-01-02T10:20:24.200Z,100485.34
2023-01-02T10:23:15.546Z,100488.47
2023-01-02T10:26:06.609Z,100480.66
2023-01-02T10:29:01.462Z,100479.41
2023-01-02T10:31:53.222Z,100489.28
2023-01-02T10:34:44.825Z,100472.69
2023-01-02T10:37:33.590Z,100483.25
2023-01-02T10:40:22.279Z,100468.88
2023-01-02T10:43:12.236Z,100471.78
2023-01-02T10:46:02.705Z,100465.22
2023-01-02T10:48:52.397Z,100472.66
2023-01-02T10:51:45.644Z,100469.19
2023-01-02T10:54:55.012Z,100462.84
2023-01-02T10:57:51.168Z,100458.34
2023-01-02T11:00:39.913Z,100454.81
2023-01-02T11:03:30.381Z,100447.22
2023-01-02T11:06:35.253Z,100451.53
2023-01-02T11:09:28.164Z,100449.44
2023-01-02T11:12:16.819Z,100441.22
2023-01-02T11:15:13.323Z,100450.47
2023-01-02T11:18:02.691Z,100447.59
2023-01-02T11:20:55.031Z,100448.41
2023-01-02T11:23:45.875Z,100443.03
2023-01-02T11:26:36.022Z,100436.88
2023-01-02T11:29:30.642Z,100449.03
2023-01-02T11:32:27.932Z,100435.41
2023-01-02T11:35:34.494Z,100442.00
2023-01-02T11:38:29.024Z,100444.69
2023-01-02T11:41:50.220Z,100439.75
2023-01-02T11:44:48.240Z,100437.47
2023-01-02T11:47:39.868Z,100427.41
2023-01-02T11:50:29.791Z,100435.00
2023-01-02T11:53:21.916Z,100429.44
2023-01-02T11:56:15.030Z,100440.53
2023-01-02T11:59:07.078Z,100447.19
2023-01-02T12:01:59.915Z,100448.00
2023-01-02T12:04:48.602Z,100445.06
2023-01-02T12:07:44.021Z,100430.00
2023-01-02T12:10:42.181Z,100446.69
2023-01-02T12:13:44.040Z,100441.53
2023-01-02T12:16:37.740Z,100437.16
2023-01-02T12:19:41.267Z,100438.81
2023-01-02T12:22:52.631Z,100431.78
2023-01-02T12:25:49.705Z,100433.41
2023-01-02T12:29:46.985Z,100423.56
2023-01-02T12:33:05.061Z,100416.53
2023-01-02T12:36:07.820Z,100422.69
2023-01-02T12:39:11.209Z,100420.19
2023-01-02T12:42:07.460Z,100428.50
2023-01-02T12:45:00.259Z,100419.38
2023-01-02T12:48:07.067Z,100416.91
2023-01-02T12:51:03.915Z,100417.75
2023-01-02T12:54:20.675Z,100432.56
2023-01-02T12:57:21.847Z,100426.34
2023-01-02T13:00:25.568Z,100438.50
2023-01-02T13:03:31.310Z,100433.75
2023-01-02T13:06:43.729Z,100430.47
2023-01-02T13:09:34.828Z,100428.03
2023-01-02T13:12:25.819Z,100409.47
2023-01-02T13:15:21.080Z,100410.13
2023-01-02T13:18:15.660Z,100417.22
2023-01-02T13:21:10.747Z,100419.00
2023-01-02T13:23:59.665Z,100415.66
2023-01-02T13:26:48.336Z,100419.75
2023-01-02T13:29:46.687Z,100426.31
2023-01-02T13:32:36.765Z,100426.31
2023-01-02T13:35:25.555Z,100436.84
2023-01-02T13:38:16.625Z,100440.78
2023-01-02T13:41:05.322Z,100448.19
2023-01-02T13:43:56.594Z,100452.72
2023-01-02T13:50:04.317Z,100444.44
2023-01-02T13:53:02.641Z,100450.72
2023-01-02T13:56:06.701Z,100449.47
2023-01-02T13:59:02.748Z,100450.88
2023-01-02T14:02:16.726Z,100459.31
2023-01-02T14:05:38.647Z,100448.16
2023-01-02T14:08:29.743Z,100448.16
2023-01-02T14:11:21.027Z,100441.97
2023-01-02T14:14:12.302Z,100453.97
2023-01-02T14:17:11.692Z,100467.75
2023-01-02T14:20:21.459Z,100471.06
2023-01-02T14:23:11.822Z,100476.78
2023-01-02T14:26:01.873Z,100477.19
2023-01-02T14:28:52.631Z,100477.00
2023-01-02T14:31:41.471Z,100477.25
2023-01-02T14:34:30.229Z,100484.25
2023-01-02T14:37:29.851Z,100501.06
2023-01-02T14:40:34.931Z,100493.59
2023-01-02T14:43:31.556Z,100505.53
2023-01-02T14:46:22.741Z,100512.31
2023-01-02T14:49:25.523Z,100506.31
2023-01-02T14:52:19.463Z,100500.59
2023-01-02T14:55:14.728Z,100493.56
2023-01-02T14:58:04.430Z,100493.34
2023-01-02T15:00:59.108Z,100490.31
2023-01-02T15:03:56.312Z,100477.56
2023-01-02T15:06:48.028Z,100487.81
2023-01-02T15:09:39.593Z,100488.78
2023-01-02T15:12:55.572Z,100496.41
2023-01-02T15:15:46.962Z,100495.16
2023-01-02T15:18:38.915Z,100503.41
2023-01-02T15:21:31.524Z,100504.00
2023-01-02T15:24:22.345Z,100499.69
2023-01-02T15:27:14.513Z,100497.59
2023-01-02T15:30:17.996Z,100513.28
2023-01-02T15:33:06.847Z,100509.16
2023-01-02T15:35:59.533Z,100510.78
2023-01-02T15:38:50.782Z,100519.06
2023-01-02T15:41:43.295Z,100522.78
2023-01-02T15:45:04.346Z,100531.06
2023-01-02T15:47:53.615Z,100542.81
2023-01-02T15:50:42.877Z,100544.25
2023-01-02T15:53:34.520Z,100541.22
2023-01-02T15:56:34.040Z,100535.75
2023-01-02T15:59:28.299Z,100547.72
2023-01-02T16:02:38.121Z,100537.63
2023-01-02T16:05:28.278Z,100530.81
2023-01-02T16:08:21.799Z,100532.69
2023-01-02T16:11:15.945Z,100542.16
2023-01-02T16:14:22.166Z,100552.88
2023-01-02T16:17:16.272Z,100566.25
2023-01-02T16:20:07.734Z,100563.75
2023-01-02T16:22:58.806Z,100574.00
2023-01-02T16:25:52.804Z,100571.53
2023-01-02T16:28:44.582Z,100579.81
2023-01-02T16:31:52.578Z,100574.25
2023-01-02T16:34:41.677Z,100572.41
2023-01-02T16:37:35.053Z,100579.44
2023-01-02T16:41:00.426Z,100585.22
2023-01-02T16:43:52.402Z,100590.59
2023-01-02T16:46:41.717Z,100581.06
2023-01-02T16:49:30.453Z,100593.41
2023-01-02T16:52:19.175Z,100601.88
2023-01-02T16:55:08.930Z,100599.38
2023-01-02T16:57:57.692Z,100604.91
2023-01-02T17:00:47.897Z,100605.50
2023-01-02T17:03:36.628Z,100608.00
2023-01-02T17:06:25.344Z,100616.03
2023-01-02T17:09:13.987Z,100612.34
2023-01-02T17:12:03.191Z,100604.97
2023-01-02T17:14:51.963Z,100612.81
2023-01-02T17:17:42.051Z,100615.72
2023-01-02T17:20:32.402Z,100622.91
2023-01-02T17:23:21.201Z,100623.75
2023-01-02T17:26:09.911Z,100630.13
2023-01-02T17:28:58.580Z,100629.72
2023-01-02T17:31:49.963Z,100615.50
2023-01-02T17:34:39.959Z,100619.84
2023-01-02T17:37:28.615Z,100621.91
2023-01-02T17:40:17.377Z,100625.19
2023-01-02T17:43:06.191Z,100635.06
2023-01-02T17:45:54.836Z,100630.94
2023-01-02T17:48:43.852Z,100635.28
2023-01-02T17:51:33.840Z,100635.44
2023-01-02T17:54:22.554Z,100638.56
2023-01-02T17:57:11.675Z,100632.59
2023-01-02T18:00:00.304Z,100631.56
2023-01-02T18:02:49.025Z,100644.16
2023-01-02T18:05:38.067Z,100637.56
2023-01-02T18:08:28.128Z,100630.13
2023-01-02T18:11:17.810Z,100633.00
2023-01-02T18:14:14.572Z,100633.81
2023-01-02T18:17:14.198Z,100629.28
2023-01-02T18:20:03.919Z,100634.25
2023-01-02T18:22:52.598Z,100636.91
2023-01-02T18:25:43.353Z,100639.16
2023-01-02T18:28:32.145Z,100634.63
2023-01-02T18:31:22.381Z,100643.72
2023-01-02T18:34:45.825Z,100639.59
2023-01-02T18:37:29.454Z,100645.38
2023-01-02T18:40:27.585Z,100643.72
2023-01-02T18:43:24.906Z,100643.28
2023-01-02T18:46:17.459Z,100636.69
2023-01-02T18:49:16.497Z,100637.53
2023-01-02T18:52:25.291Z,100641.03
2023-01-02T18:55:21.615Z,100639.63
2023-01-02T18:58:37.361Z,100638.34
2023-01-02T19:01:29.102Z,100640.41
2023-01-02T19:04:27.289Z,100645.78
2023-01-02T19:07:24.506Z,100637.94
2023-01-02T19:10:29.969Z,100636.69
2023-01-02T19:13:25.156Z,100639.72
2023-01-02T19:16:19.096Z,100638.09
2023-01-02T19:19:13.280Z,100648.28
2023-01-02T19:22:02.734Z,100642.06
2023-01-02T19:24:51.596Z,100646.16
2023-01-02T19:27:40.411Z,100637.47
2023-01-02T19:30:35.798Z,100645.31
2023-01-02T19:33:40.195Z,100643.03
2023-01-02T19:36:36.962Z,100639.72
2023-01-02T19:39:27.422Z,100645.94
2023-01-02T19:42:23.240Z,100649.66
2023-01-02T19:45:15.600Z,100650.66
2023-01-02T19:48:04.194Z,100649.84
2023-01-02T19:50:54.097Z,100648.41
2023-01-02T19:53:42.687Z,100654.59
2023-01-02T19:56:31.267Z,100657.47
2023-01-02T19:59:19.902Z,100668.44
2023-01-02T20:02:08.973Z,100672.97
2023-01-02T20:04:57.850Z,100678.50
2023-01-02T20:07:47.849Z,100698.94
2023-01-02T20:10:36.447Z,100701.84
2023-01-02T20:13:24.991Z,100718.38
2023-01-02T20:16:13.583Z,100710.94
2023-01-02T20:19:02.272Z,100727.84
2023-01-02T20:21:50.832Z,100741.50
2023-01-02T20:24:40.823Z,100767.47
2023-01-02T20:27:29.399Z,100779.22
2023-01-02T20:30:23.865Z,100785.19
2023-01-02T20:33:14.245Z,100810.59
2023-01-02T20:36:03.639Z,100816.78
2023-01-02T20:38:54.440Z,100830.00
2023-01-02T20:41:44.754Z,100839.91
2023-01-02T20:44:33.517Z,100853.31
2023-01-02T20:47:22.091Z,100847.53
2023-01-02T20:50:11.031Z,100857.22
2023-01-02T20:52:59.742Z,100871.06
2023-01-02T20:55:48.444Z,100873.69
2023-01-02T20:58:38.430Z,100880.13
2023-01-02T21:01:27.676Z,100886.31
2023-01-02T21:04:22.565Z,100885.09
2023-01-02T21:07:16.597Z,100892.91
2023-01-02T21:10:05.791Z,100889.59
2023-01-02T21:13:10.867Z,100878.47
2023-01-02T21:16:00.868Z,100895.81
2023-01-02T21:18:49.557Z,100914.00
2023-01-02T21:21:38.189Z,100931.75
2023-01-02T21:24:26.867Z,100926.38
2023-01-02T21:27:15.637Z,100931.06
2023-01-02T21:30:04.249Z,100933.38
2023-01-02T21:32:54.244Z,100935.03
2023-01-02T21:35:43.335Z,100936.25
2023-01-02T21:38:31.953Z,100949.88
2023-01-02T21:41:38.275Z,100953.19
2023-01-02T21:44:26.919Z,100949.25
2023-01-02T21:47:15.768Z,100959.00
2023-01-02T21:50:06.433Z,100960.22
2023-01-02T21:52:55.570Z,100970.13
2023-01-02T21:55:44.167Z,100976.38
2023-01-02T21:58:32.809Z,100982.31
2023-01-02T22:01:21.411Z,100982.91
2023-01-02T22:04:10.139Z,100963.94
2023-01-02T22:10:10.029Z,100979.59
2023-01-02T22:12:58.713Z,100993.00
2023-01-02T22:15:47.389Z,100992.19
2023-01-02T22:18:38.320Z,101001.69
2023-01-02T22:21:27.194Z,101012.59
2023-01-02T22:24:17.664Z,101014.69
2023-01-02T22:27:07.933Z,101018.41
2023-01-02T22:33:09.091Z,101029.56
2023-01-02T22:35:57.652Z,101031.41
2023-01-02T22:39:17.631Z,101030.59
2023-01-02T22:42:33.677Z,101030.78
2023-01-02T22:45:24.695Z,101038.44
2023-01-02T22:48:19.201Z,101033.72
2023-01-02T22:51:18.440Z,101049.44
2023-01-02T22:54:16.216Z,101044.09
2023-01-02T22:57:18.610Z,101049.47
2023-01-02T23:00:08.743Z,101052.81
2023-01-02T23:02:58.151Z,101050.19
2023-01-02T23:05:46.763Z,101048.97
2023-01-02T23:08:35.564Z,101061.38
2023-01-02T23:11:24.488Z,101060.53
2023-01-02T23:14:15.280Z,101068.34
2023-01-02T23:17:21.440Z,101071.06
2023-01-02T23:20:10.802Z,101069.81
2023-01-02T23:22:59.377Z,101078.72
2023-01-02T23:25:47.999Z,101076.03
2023-01-02T23:29:06.170Z,101069.03
2023-01-02T23:31:48.230Z,101056.22
2023-01-02T23:34:36.834Z,101071.25
2023-01-02T23:37:26.159Z,101065.06
2023-01-02T23:40:14.963Z,101075.34
2023-01-02T23:43:03.685Z,101084.91
2023-01-02T23:45:53.774Z,101099.97
2023-01-02T23:48:43.778Z,101108.03
2023-01-02T23:51:32.454Z,101110.03
2023-01-02T23:54:21.417Z,101111.34
2023-01-02T23:57:10.061Z,101125.91
2023-01-02T23:59:58.649Z,101121.13
